• Join FlightAware (Why Join?)
  • Login
  • US Flag 
05:12AM EDT


 

Airport Tracker/Info


-or-


 

Live Flight TrackerFlight Track Log ✈ GGN7280 ✈ 03-Jul-2013 ✈ CYYZ - KALB

Flight Track Log - Related Links

Times and Time Zones

All times are in EDT time to prevent confusion due to time zone crossing. See the GGN7280 flight status page for this flight to view local times or setup timezone preferences in your user account.

Time Position Orientation Groundspeed Altitude Reporting Facility
EDT Latitude Longitude Course Direction KTS MPH feet Rate Location/Type
09:33AM 43.6333 -79.6167 180° South 150 173 2,500  Level Toronto Center
09:34AM 43.5833 -79.6167 180° South 200 230 3,200 720 Climbing Toronto Center
09:35AM 43.5500 -79.5667 133° Southeast 210 242 4,000 480 Climbing Toronto Center
09:37AM 43.5444 -79.4378 93° East 256 295 4,600 360 Climbing Cleveland Center
09:38AM 43.5311 -79.3492 102° East 242 278 5,000 780 Climbing Cleveland Center
09:39AM 43.5000 -79.2000 106° East 240 276 6,500 1,560 Climbing Toronto Center
09:40AM 43.5000 -79.1333 90° East 210 242 8,700 2,160 Climbing Toronto Center
09:41AM 43.4833 -79.0667 109° East 200 230 10,900 1,920 Climbing Toronto Center
09:43AM 43.4822 -78.9353 91° East 207 238 14,000 1,740 Climbing Cleveland Center
09:44AM 43.4706 -78.8556 101° East 207 238 15,700 1,500 Climbing Cleveland Center
09:45AM 43.4589 -78.7700 101° East 212 244 17,100 1,260 Climbing Cleveland Center
09:46AM 43.4469 -78.6819 101° East 223 257 18,300 1,200 Climbing Cleveland Center
09:47AM 43.4372 -78.5878 98° East 236 272 19,600 1,020 Climbing Cleveland Center
09:48AM 43.4272 -78.4967 99° East 236 272 20,400 720 Climbing Cleveland Center
09:49AM 43.4150 -78.4000 100° East 241 277 21,100 720 Climbing Cleveland Center
09:50AM 43.4025 -78.3003 100° East 253 291 21,900 660 Climbing Cleveland Center
09:51AM 43.3922 -78.2006 98° East 259 298 22,500 600 Climbing Cleveland Center
09:52AM 43.3778 -78.0983 101° East 259 298 23,100 600 Climbing Cleveland Center
09:53AM 43.3650 -78.0017 100° East 259 298 23,700 540 Climbing Cleveland Center
09:54AM 43.3525 -77.9022 100° East 259 298 24,200 480 Climbing Cleveland Center
09:55AM 43.3397 -77.8003 100° East 259 298 24,700 300 Climbing Cleveland Center
09:56AM 43.3267 -77.6981 100° East 259 298 24,900 120 Climbing Cleveland Center
09:57AM 43.3117 -77.5931 101° East 264 304 25,000 60 Climbing Cleveland Center
09:58AM 43.2983 -77.4825 99° East 275 316 25,100  Climbing Cleveland Center
09:59AM 43.2850 -77.3775 100° East 280 322 25,000 -60 Descending Cleveland Center
10:00AM 43.2672 -77.2672 102° East 285 328 25,000  Level Cleveland Center
10:01AM 43.2517 -77.1597 101° East 285 328 25,000  Level Cleveland Center
10:03AM 43.2167 -76.8833 100° East 280 322 25,000  Level Toronto Center
10:04AM 43.2000 -76.7667 101° East 280 322 25,000  Level Toronto Center
10:05AM 43.1667 -76.6667 115° Southeast 290 334 25,100  Climbing Toronto Center
10:06AM 43.1667 -76.5667 90° East 280 322 25,100  Level Toronto Center
10:07AM 43.1500 -76.4500 101° East 290 334 25,100  Level Toronto Center
10:08AM 43.1500 -76.3500 90° East 280 322 25,100 -60 Level Toronto Center
10:09AM 43.1500 -76.2333 90° East 290 334 25,000  Descending Toronto Center
10:10AM 43.1500 -76.1333 90° East 290 334 25,100  Climbing Toronto Center
10:11AM 43.1333 -76.0167 101° East 290 334 25,000 -660 Descending Toronto Center
10:12AM 43.1167 -75.9167 103° East 310 357 23,800 -1,440 Descending Toronto Center
10:13AM 43.1167 -75.8000 90° East 310 357 22,200 -1,740 Descending Toronto Center
10:14AM 43.1231 -75.6917 85° East 303 349 20,200 -1,740 Descending Boston Center
10:15AM 43.1158 -75.5775 95° East 303 349 18,600 -1,320 Descending Boston Center
10:17AM 43.1086 -75.4578 95° East 308 354 17,300 -1,260 Descending Boston Center
10:18AM 43.0953 -75.3261 98° East 303 349 15,900 -1,260 Descending Boston Center
10:19AM 43.0897 -75.2150 94° East 297 342 14,800 -1,080 Descending Boston Center
10:20AM 43.0800 -75.1036 97° East 292 336 13,800 -900 Descending Boston Center
10:21AM 43.0742 -74.9983 94° East 292 336 13,000 -720 Descending Boston Center
10:22AM 43.0642 -74.8756 96° East 268 308 12,300 -600 Descending Boston Center
10:23AM 43.0581 -74.7789 95° East 266 306 11,700 -660 Descending Boston Center
10:24AM 43.0475 -74.6733 98° East 270 311 11,000 -300 Descending Boston Center
10:25AM 43.0450 -74.5936 92° East 259 298 11,100 -60 Climbing Boston Center
10:26AM 43.0344 -74.4767 97° East 256 295 10,900 -600 Descending Boston Center
10:27AM 43.0239 -74.3769 98° East 261 300 9,900 -1,200 Descending Boston Center
10:28AM 43.0150 -74.2744 97° East 266 306 8,500 -1,200 Descending Boston Center
10:29AM 42.9853 -74.1856 115° Southeast 261 300 7,500 -1,500 Descending Boston Center
10:30AM 42.9383 -74.1133 132° Southeast 251 289 5,600 -1,860 Descending Boston Center
10:31AM 42.8975 -74.0500 131° Southeast 235 270 3,800 -1,380 Descending Boston Center
10:32AM 42.8631 -73.9839 125° Southeast 214 246 2,600 3,240 Descending Boston Center
10:33AM 42.8203 -73.9147 130° Southeast 214 246 11,000 -180 Climbing Boston Center
10:34AM 42.8214 -73.8272 89° East 185 213 2,300  Descending Boston Center
10:35AM 42.7489 -73.7858 157° South 214 246 11,000 4,560 Climbing Boston Center
10:36AM 42.7203 -73.7344 127° Southeast 214 246 11,000  Level Boston Center
10:37AM 42.7203 -73.7344 236° Southwest 214 246 11,000  Level Boston Center